logo
Search for airport 
image banner adimage banner adimage banner ad
image banner ad

FAMS - Morningside Farm

Located in Koster, South Africa

ICAO - FAMS, IATA -

Data provided by Airmate  

General information

Coordinates: S25°41'50" E26°54'41"
Elevation is 4251 feet MSL.
 
View others Airports in North-West

Operational data

Special qualification required
Current time UTC:
Current local time:
Weather at : - ( 0 km )
METAR: LWSK 150820Z VRB01KT CAVOK 20/11 Q1019 NOSIG
View NOTAMs / SUP AIP / TFR affecting this airport [VIEW]
Communications frequencies: [VIEW]

Runways:

RWY identifierQFULength (ft)Width (ft)SurfaceLDA (ft)
0317°504633ASP
21197°504633ASP

Airport contact information

Address: Koster South Africa

Satellite view of FAMS